Bergen, North Dakota
Current Conditions -  °F | °C
As of 4:54 AM on Sunday 21 Dec 2014 (Local Time) from KMOT Reporting Station
Clear Clear  
Wind Chill: 20°   Ceiling: Unl
Heat Index: 20°   Visibility: 10mi
Dew Point: 17°   Wind: 0mph
Humidity: 89%   Direction: NA
Pressure: 29.6"   Gusts: NA
Location:  47.9335°N, 100.777°W
Report Text: KMOT 211054Z AUTO 00000KT 10SM CLR M07/M08 A2960 RMK AO2 SLP051 T10671083
Loading
Personal Weather Stations






























Interactive Weather Map New forecast layout! Learn more

10-Day Weather Forecast

Advertisements
Track Severe Weather on mobile